Time;durP1;ratioP1;P1;durP2;ratioP2;P2;SDS_P1;SDS_P2;PMS_P1;PMS_P2;Temp;Humidity;BMP_temperature;BMP_pressure;BME280_temperature;BME280_humidity;BME280_pressure;Samples;Min_cycle;Max_cycle;Signal;HPM_P1;HPM_P2
2022/10/03 00:00:00;;;;;;;14.93;8.85;;;9.30;72.40;;;;;;5035793;28;20321;-64
2022/10/03 00:02:44;;;;;;;14.23;8.52;;;9.20;72.60;;;;;;5029566;28;20061;-65
2022/10/03 00:05:10;;;;;;;19.30;11.68;;;9.10;72.60;;;;;;5032897;28;20117;-64
2022/10/03 00:07:43;;;;;;;9.75;6.47;;;9.00;72.70;;;;;;5035360;28;20116;-66
2022/10/03 00:10:24;;;;;;;10.65;6.20;;;9.10;72.30;;;;;;5035737;28;20063;-66
2022/10/03 00:13:18;;;;;;;9.80;5.63;;;9.00;72.30;;;;;;5029178;28;20117;-67
2022/10/03 00:16:08;;;;;;;7.00;4.38;;;9.10;72.30;;;;;;5039286;28;20030;-67
2022/10/03 00:18:51;;;;;;;7.15;4.90;;;9.10;72.40;;;;;;5032093;28;20048;-66
2022/10/03 00:21:35;;;;;;;11.35;5.85;;;9.00;72.50;;;;;;5021828;28;20033;-65
2022/10/03 00:24:19;;;;;;;10.75;5.63;;;8.80;73.00;;;;;;5030493;28;20026;-65
2022/10/03 00:26:51;;;;;;;11.50;5.83;;;8.70;72.90;;;;;;5030959;28;20026;-65
2022/10/03 00:29:37;;;;;;;11.75;6.20;;;8.70;72.80;;;;;;5034326;28;20477;-66
2022/10/03 00:32:17;;;;;;;13.90;7.80;;;8.50;73.20;;;;;;5033316;28;20029;-65
2022/10/03 00:35:03;;;;;;;17.35;8.82;;;8.30;74.30;;;;;;5028279;28;20107;-65
2022/10/03 00:37:56;;;;;;;10.65;7.03;;;8.10;74.30;;;;;;5028826;28;20049;-65
2022/10/03 00:40:43;;;;;;;9.40;6.22;;;8.00;73.60;;;;;;5029650;28;20345;-65
2022/10/03 00:43:19;;;;;;;13.88;7.32;;;8.00;73.10;;;;;;5030106;28;20038;-65
2022/10/03 00:46:03;;;;;;;11.82;7.25;;;8.00;73.20;;;;;;5023048;28;20034;-65
2022/10/03 00:49:10;;;;;;;14.30;8.10;;;7.90;73.20;;;;;;5036987;28;20426;-66
2022/10/03 00:51:57;;;;;;;17.73;8.10;;;7.80;73.20;;;;;;4993962;28;20044;-65
2022/10/03 00:54:40;;;;;;;10.95;6.47;;;7.80;73.30;;;;;;5012101;28;21555;-65
2022/10/03 00:57:28;;;;;;;10.98;6.63;;;7.80;72.80;;;;;;5012863;28;20035;-65
2022/10/03 01:00:17;;;;;;;12.95;7.60;;;7.70;73.00;;;;;;5004534;28;20038;-65
2022/10/03 01:03:07;;;;;;;15.02;7.75;;;7.70;72.80;;;;;;5009385;28;20096;-65
2022/10/03 01:05:54;;;;;;;19.85;9.07;;;7.80;72.50;;;;;;5012043;28;20021;-65
2022/10/03 01:08:45;;;;;;;18.27;9.60;;;8.00;72.50;;;;;;5011974;28;20065;-65
2022/10/03 01:11:20;;;;;;;14.63;7.85;;;8.10;72.60;;;;;;5031693;28;20033;-65
2022/10/03 01:13:52;;;;;;;17.27;7.95;;;8.10;72.80;;;;;;5030835;28;20385;-65
2022/10/03 01:16:36;;;;;;;13.68;7.60;;;8.10;72.60;;;;;;5028311;28;20036;-65
2022/10/03 01:19:21;;;;;;;11.27;5.88;;;8.10;72.70;;;;;;5018040;28;20110;-66
2022/10/03 01:21:56;;;;;;;;;;;8.00;72.70;;;;;;5024228;28;20108;-66
2022/10/03 01:24:32;;;;;;;13.30;8.05;;;8.00;72.70;;;;;;5025056;28;19918;-66
2022/10/03 01:27:03;;;;;;;15.55;8.27;;;7.90;72.80;;;;;;5022135;28;20140;-65
2022/10/03 01:30:21;;;;;;;10.55;5.65;;;7.90;72.70;;;;;;5036158;28;20028;-65
2022/10/03 01:33:09;;;;;;;19.40;7.95;;;7.80;72.60;;;;;;5017111;28;20604;-65
2022/10/03 01:36:02;;;;;;;17.10;8.65;;;7.80;72.50;;;;;;5031954;28;20489;-66
2022/10/03 01:38:37;;;;;;;13.65;7.80;;;7.90;72.50;;;;;;5022876;28;20311;-65
2022/10/03 01:41:34;;;;;;;17.55;8.75;;;8.00;72.50;;;;;;5022393;28;20029;-65
2022/10/03 01:44:23;;;;;;;17.70;8.18;;;8.10;72.50;;;;;;5035146;28;20034;-65
2022/10/03 01:47:14;;;;;;;13.43;8.20;;;8.20;72.50;;;;;;5025222;28;20032;-66
2022/10/03 01:50:24;;;;;;;15.68;8.30;;;8.30;72.50;;;;;;5023843;28;20029;-65
2022/10/03 01:53:16;;;;;;;13.82;8.55;;;8.40;72.50;;;;;;5008004;28;20080;-65
2022/10/03 01:55:57;;;;;;;15.52;7.30;;;8.50;72.40;;;;;;5031368;28;20029;-66
2022/10/03 01:58:55;;;;;;;15.15;9.23;;;8.60;72.40;;;;;;5028631;28;20045;-65
2022/10/03 02:01:43;;;;;;;16.35;7.47;;;8.60;72.50;;;;;;5037930;28;20052;-65
2022/10/03 02:04:17;;;;;;;10.95;7.18;;;8.60;72.40;;;;;;5031846;28;20349;-65
2022/10/03 02:07:04;;;;;;;9.98;6.55;;;8.60;72.40;;;;;;5024996;28;20418;-66
2022/10/03 02:09:51;;;;;;;16.42;7.25;;;8.80;72.40;;;;;;5019616;28;20093;-65
2022/10/03 02:12:47;;;;;;;11.95;6.55;;;8.80;72.40;;;;;;5032913;28;20035;-65
2022/10/03 02:15:20;;;;;;;13.55;8.27;;;8.90;72.40;;;;;;5027227;28;20091;-65
2022/10/03 02:18:10;;;;;;;8.90;6.18;;;9.00;72.40;;;;;;5029193;28;20036;-66
2022/10/03 02:20:42;;;;;;;13.00;7.30;;;9.00;72.40;;;;;;5032820;28;20025;-65
2022/10/03 02:23:30;;;;;;;18.30;7.25;;;9.10;72.30;;;;;;5032413;28;20433;-65
2022/10/03 02:26:28;;;;;;;10.60;6.57;;;9.10;72.30;;;;;;5028284;28;20107;-65
2022/10/03 02:29:16;;;;;;;12.55;7.63;;;9.10;72.30;;;;;;5028522;28;20077;-64
2022/10/03 02:32:06;;;;;;;10.60;6.25;;;9.10;72.30;;;;;;5024598;28;20042;-66
2022/10/03 02:35:13;;;;;;;10.65;6.00;;;9.10;72.30;;;;;;5032650;28;20026;-65
2022/10/03 02:38:06;;;;;;;14.68;6.80;;;9.10;72.30;;;;;;5028451;28;20065;-66
2022/10/03 02:40:32;;;;;;;8.48;5.45;;;9.10;72.30;;;;;;5030241;28;20033;-65
2022/10/03 02:43:16;;;;;;;14.23;6.55;;;9.10;72.30;;;;;;5025900;28;20033;-65
2022/10/03 02:45:54;;;;;;;11.65;7.93;;;9.10;72.30;;;;;;5030749;28;20022;-65
2022/10/03 02:48:45;;;;;;;15.65;8.75;;;9.10;72.30;;;;;;5028072;28;20078;-66
2022/10/03 02:51:33;;;;;;;24.45;14.52;;;9.20;72.30;;;;;;5031870;28;20029;-65
2022/10/03 02:54:05;;;;;;;22.17;15.73;;;9.30;72.40;;;;;;5030595;28;20389;-64
2022/10/03 02:57:01;;;;;;;42.50;20.73;;;9.30;72.40;;;;;;5033621;28;20100;-65
2022/10/03 02:59:46;;;;;;;18.50;13.07;;;9.40;72.40;;;;;;5029305;28;20033;-64
2022/10/03 03:02:14;;;;;;;34.78;19.63;;;9.40;72.30;;;;;;5029338;28;20025;-64
2022/10/03 03:05:26;;;;;;;25.42;16.52;;;9.30;72.30;;;;;;5049741;28;20418;-67
2022/10/03 03:08:10;;;;;;;27.25;18.30;;;9.40;72.30;;;;;;5000678;28;20033;-67
2022/10/03 03:11:21;;;;;;;26.38;19.77;;;9.40;72.30;;;;;;5032016;28;20025;-66
2022/10/03 03:13:57;;;;;;;37.40;21.75;;;9.40;72.30;;;;;;5033256;28;20030;-66
2022/10/03 03:16:48;;;;;;;35.20;22.58;;;9.40;72.30;;;;;;5033661;28;20377;-66
2022/10/03 03:19:33;;;;;;;40.42;21.85;;;9.30;72.20;;;;;;5020978;28;20061;-65
2022/10/03 03:22:04;;;;;;;42.63;24.63;;;9.40;72.30;;;;;;5033075;28;20029;-65
2022/10/03 03:24:30;;;;;;;29.95;19.65;;;9.30;72.20;;;;;;5024473;28;20032;-65
2022/10/03 03:26:55;;;;;;;20.63;14.75;;;9.40;72.20;;;;;;5025766;28;20450;-65
2022/10/03 03:29:33;;;;;;;19.85;13.48;;;9.40;72.10;;;;;;5031742;28;20028;-65
2022/10/03 03:32:37;;;;;;;33.53;19.90;;;9.40;72.20;;;;;;5023533;28;21126;-65
2022/10/03 03:35:13;;;;;;;28.85;18.40;;;9.30;72.30;;;;;;4985830;28;20042;-66
2022/10/03 03:37:48;;;;;;;25.23;18.50;;;9.30;72.30;;;;;;5029304;28;20069;-66
2022/10/03 03:40:31;;;;;;;20.90;16.30;;;9.30;72.20;;;;;;5028849;28;20088;-65
2022/10/03 03:43:28;;;;;;;21.35;17.25;;;9.30;72.20;;;;;;5030212;28;20179;-65
2022/10/03 03:46:12;;;;;;;25.05;16.50;;;9.30;72.10;;;;;;5035740;28;20025;-66
2022/10/03 03:49:24;;;;;;;20.08;16.63;;;9.30;72.10;;;;;;5038571;28;20029;-65
2022/10/03 03:52:31;;;;;;;29.13;19.15;;;9.30;72.20;;;;;;5016756;28;20051;-66
2022/10/03 03:55:15;;;;;;;29.65;19.98;;;9.30;72.20;;;;;;5033293;28;20045;-65
2022/10/03 03:58:01;;;;;;;32.92;20.98;;;9.30;72.20;;;;;;5036643;28;20029;-65
2022/10/03 04:00:34;;;;;;;29.55;19.45;;;9.30;72.20;;;;;;5030543;28;20053;-65
2022/10/03 04:03:21;;;;;;;27.52;18.10;;;9.30;72.10;;;;;;5037192;28;20025;-65
2022/10/03 04:06:15;;;;;;;32.58;19.70;;;9.40;72.20;;;;;;5013422;28;20025;-65
2022/10/03 04:08:59;;;;;;;19.23;14.55;;;9.30;72.20;;;;;;5039238;28;20555;-65
2022/10/03 04:12:08;;;;;;;16.00;13.25;;;9.40;72.10;;;;;;5036073;28;20022;-64
2022/10/03 04:15:05;;;;;;;24.98;16.05;;;9.50;72.10;;;;;;5039475;28;20041;-64
2022/10/03 04:20:39;;;;;;;25.80;17.23;;;9.40;72.20;;;;;;5043363;28;20040;-63
2022/10/03 04:23:21;;;;;;;27.90;17.45;;;9.20;72.50;;;;;;5037013;28;20048;-63
2022/10/03 04:25:53;;;;;;;39.20;21.92;;;9.00;72.50;;;;;;5039501;28;20159;-65
2022/10/03 04:28:25;;;;;;;31.98;19.27;;;8.90;72.40;;;;;;5036697;28;20025;-64
2022/10/03 04:31:11;;;;;;;35.33;20.83;;;8.80;72.40;;;;;;5037856;28;20079;-64
2022/10/03 04:34:11;;;;;;;14.15;11.70;;;8.70;72.60;;;;;;5039464;28;20105;-64
2022/10/03 04:37:05;;;;;;;16.40;12.05;;;8.60;72.40;;;;;;5036001;28;20045;-64
2022/10/03 04:39:36;;;;;;;17.07;13.30;;;8.60;72.20;;;;;;5027822;28;20026;-65
2022/10/03 04:42:28;;;;;;;14.65;12.57;;;8.50;72.40;;;;;;5026441;28;20426;-65
2022/10/03 04:45:02;;;;;;;15.10;11.07;;;8.50;72.40;;;;;;5032726;28;20053;-64
2022/10/03 04:47:51;;;;;;;13.77;11.45;;;8.40;72.50;;;;;;5021339;28;20627;-66
2022/10/03 04:50:56;;;;;;;20.50;14.02;;;8.40;72.60;;;;;;5023277;28;20044;-65
2022/10/03 04:53:44;;;;;;;29.25;17.95;;;8.20;72.90;;;;;;5036860;28;20034;-65
2022/10/03 04:56:22;;;;;;;16.20;12.27;;;8.10;73.40;;;;;;5033778;28;20083;-65
2022/10/03 04:59:20;;;;;;;16.05;11.75;;;8.00;73.00;;;;;;5033774;28;20087;-66
2022/10/03 05:02:02;;;;;;;18.05;12.27;;;8.10;72.30;;;;;;5023383;28;20038;-65
2022/10/03 05:05:03;;;;;;;23.33;15.70;;;8.30;72.30;;;;;;5032450;28;20029;-66
2022/10/03 05:07:44;;;;;;;23.60;15.13;;;8.40;72.50;;;;;;5033742;28;20026;-65
2022/10/03 05:10:22;;;;;;;21.35;14.38;;;8.50;72.40;;;;;;5031681;28;20318;-65
2022/10/03 05:13:01;;;;;;;20.75;14.70;;;8.50;72.30;;;;;;5036103;28;20341;-65
2022/10/03 05:15:51;;;;;;;24.05;14.60;;;8.60;72.30;;;;;;5027675;28;21545;-64
2022/10/03 05:18:46;;;;;;;23.95;14.25;;;8.70;72.40;;;;;;5035371;28;20033;-65
2022/10/03 05:21:49;;;;;;;21.98;14.38;;;8.70;72.40;;;;;;5030260;28;20077;-65
2022/10/03 05:24:22;;;;;;;26.52;16.67;;;8.80;72.30;;;;;;5012905;28;20494;-65
2022/10/03 05:27:06;;;;;;;21.35;14.50;;;8.80;72.30;;;;;;5030716;28;20311;-65
2022/10/03 05:29:41;;;;;;;;;;;8.90;72.20;;;;;;5035678;28;20030;-65
2022/10/03 05:32:26;;;;;;;22.05;14.95;;;8.90;72.30;;;;;;5029468;28;20322;-65
2022/10/03 05:35:03;;;;;;;22.60;15.48;;;8.90;72.30;;;;;;5024490;28;20037;-65
2022/10/03 05:37:39;;;;;;;27.90;17.13;;;8.90;72.20;;;;;;5036078;28;20045;-65
2022/10/03 05:40:21;;;;;;;24.10;14.75;;;8.90;72.10;;;;;;5027388;28;20029;-66
2022/10/03 05:42:54;;;;;;;20.70;14.60;;;8.90;72.20;;;;;;5029038;28;20029;-65
2022/10/03 05:45:44;;;;;;;20.23;12.98;;;8.90;72.20;;;;;;5034412;28;20029;-65
2022/10/03 05:48:10;;;;;;;27.48;18.70;;;8.90;72.10;;;;;;5033665;28;20030;-65
2022/10/03 05:50:40;;;;;;;15.30;11.15;;;8.90;72.30;;;;;;5035060;28;20024;-64
2022/10/03 05:53:15;;;;;;;13.88;10.68;;;9.00;72.00;;;;;;5032460;28;20125;-64
2022/10/03 05:55:52;;;;;;;16.98;11.48;;;9.00;72.00;;;;;;5033270;28;20026;-65
2022/10/03 05:58:36;;;;;;;19.75;13.50;;;9.10;72.10;;;;;;5036696;28;20048;-64
2022/10/03 06:01:15;;;;;;;18.80;14.93;;;9.10;72.20;;;;;;5033790;28;20028;-68
2022/10/03 06:04:16;;;;;;;19.70;13.43;;;9.20;72.20;;;;;;5032184;28;20028;-67
2022/10/03 06:07:00;;;;;;;49.28;22.90;;;9.20;72.00;;;;;;5016603;28;20627;-66
2022/10/03 06:09:46;;;;;;;31.67;20.30;;;9.30;72.10;;;;;;5032746;28;20049;-66
2022/10/03 06:12:37;;;;;;;384.65;34.42;;;9.30;72.20;;;;;;5032914;28;20026;-66
2022/10/03 06:15:21;;;;;;;293.95;29.15;;;9.20;72.50;;;;;;5034891;28;20135;-66
2022/10/03 06:18:01;;;;;;;304.85;35.58;;;9.10;72.30;;;;;;5026729;28;20034;-67
2022/10/03 06:20:30;;;;;;;327.50;35.33;;;9.10;72.20;;;;;;5027971;28;20033;-65
2022/10/03 06:23:05;;;;;;;374.33;31.17;;;9.00;72.30;;;;;;5033928;28;20075;-66
2022/10/03 06:26:04;;;;;;;259.33;30.58;;;9.00;72.20;;;;;;5034652;28;20025;-66
2022/10/03 06:28:50;;;;;;;439.48;37.85;;;9.00;72.10;;;;;;5033684;28;20385;-66
2022/10/03 06:31:44;;;;;;;250.75;30.92;;;9.00;72.20;;;;;;5032480;28;20029;-65
2022/10/03 06:34:33;;;;;;;275.50;30.02;;;9.00;72.20;;;;;;5033013;28;20025;-66
2022/10/03 06:37:53;;;;;;;102.55;24.85;;;9.00;72.00;;;;;;5032215;28;20327;-66
2022/10/03 06:40:40;;;;;;;271.23;31.33;;;9.10;72.10;;;;;;4967182;28;20341;-65
2022/10/03 06:43:34;;;;;;;185.82;28.75;;;9.10;72.20;;;;;;5025196;28;20029;-66
2022/10/03 06:46:27;;;;;;;213.45;26.92;;;9.20;72.10;;;;;;5028272;28;20091;-67
2022/10/03 06:49:26;;;;;;;287.95;31.25;;;9.20;72.20;;;;;;5033383;28;20088;-65
2022/10/03 06:52:19;;;;;;;136.88;25.33;;;9.20;72.20;;;;;;5027352;28;20104;-65
2022/10/03 06:55:12;;;;;;;118.43;21.38;;;9.30;72.20;;;;;;5029176;28;20076;-66
2022/10/03 06:57:58;;;;;;;66.72;20.17;;;9.30;72.10;;;;;;5025583;28;20029;-65
2022/10/03 07:00:46;;;;;;;50.70;15.40;;;9.40;72.20;;;;;;5033070;28;20375;-66
2022/10/03 07:03:44;;;;;;;19.23;13.25;;;9.40;72.20;;;;;;5034841;28;20029;-65
2022/10/03 07:06:34;;;;;;;527.22;34.60;;;9.40;72.10;;;;;;5034722;28;20021;-66
2022/10/03 07:09:09;;;;;;;331.75;30.35;;;9.50;72.20;;;;;;5027920;28;20102;-66
2022/10/03 07:11:47;;;;;;;547.20;34.35;;;9.50;72.20;;;;;;5031579;28;20025;-66
2022/10/03 07:14:40;;;;;;;702.13;41.63;;;9.40;72.20;;;;;;5033742;28;20032;-65
2022/10/03 07:17:44;;;;;;;293.73;27.95;;;9.30;72.20;;;;;;5034255;28;20307;-65
2022/10/03 07:20:10;;;;;;;226.60;28.30;;;9.30;71.80;;;;;;5028553;28;20124;-66
2022/10/03 07:22:52;;;;;;;126.55;23.63;;;9.40;71.70;;;;;;5034238;28;20156;-66
2022/10/03 07:25:58;;;;;;;73.43;23.58;;;9.50;71.70;;;;;;5031423;28;20410;-66
2022/10/03 07:28:59;;;;;;;314.73;26.63;;;9.50;71.80;;;;;;5030849;28;20021;-65
2022/10/03 07:31:42;;;;;;;718.78;31.55;;;9.50;71.90;;;;;;5033732;28;20057;-65
2022/10/03 07:34:27;;;;;;;256.80;18.23;;;9.30;71.80;;;;;;5036416;28;20033;-67
2022/10/03 07:40:17;;;;;;;78.30;11.20;;;9.50;71.60;;;;;;5032478;28;19920;-65
2022/10/03 07:43:19;;;;;;;327.10;24.60;;;9.60;71.80;;;;;;5022090;28;20042;-66
2022/10/03 07:46:18;;;;;;;50.38;14.07;;;9.60;71.70;;;;;;5045659;28;20424;-66
2022/10/03 07:49:21;;;;;;;147.07;17.67;;;9.70;71.60;;;;;;4993714;28;20046;-66
2022/10/03 07:52:11;;;;;;;169.23;20.23;;;9.80;71.80;;;;;;5033042;28;20025;-66
2022/10/03 07:54:49;;;;;;;143.82;19.80;;;9.90;71.60;;;;;;5029256;28;20036;-64
2022/10/03 07:57:35;;;;;;;33.83;17.95;;;9.90;71.70;;;;;;5031849;28;20178;-64
2022/10/03 08:00:08;;;;;;;31.15;18.42;;;9.80;71.70;;;;;;5034779;28;20060;-64
2022/10/03 08:02:55;;;;;;;29.92;18.15;;;9.80;71.60;;;;;;5045862;28;20099;-63
2022/10/03 08:05:24;;;;;;;24.08;16.48;;;9.80;71.70;;;;;;5041089;28;20025;-64
2022/10/03 08:08:32;;;;;;;25.23;17.77;;;9.90;71.60;;;;;;5047165;28;20021;-65
2022/10/03 08:11:06;;;;;;;23.55;16.58;;;10.10;71.30;;;;;;5029162;28;20029;-65
2022/10/03 08:13:38;;;;;;;22.30;15.98;;;10.70;71.30;;;;;;5032099;28;20025;-64
2022/10/03 08:16:16;;;;;;;25.40;15.80;;;11.00;71.70;;;;;;5034277;28;20014;-65
2022/10/03 08:19:26;;;;;;;15.18;11.75;;;11.40;71.20;;;;;;5033359;28;20049;-64
2022/10/03 08:22:10;;;;;;;17.67;11.73;;;11.80;73.10;;;;;;5033716;28;20029;-65
2022/10/03 08:25:05;;;;;;;15.82;9.30;;;12.10;83.20;;;;;;5044972;28;20013;-65
2022/10/03 08:28:19;;;;;;;13.43;8.73;;;12.40;89.80;;;;;;5037011;28;20053;-65
2022/10/03 08:31:24;;;;;;;14.77;7.80;;;13.90;94.60;;;;;;5035766;28;20032;-65
2022/10/03 08:34:28;;;;;;;16.83;8.30;;;14.80;98.00;;;;;;5055671;28;20036;-65
2022/10/03 08:36:56;;;;;;;11.52;8.48;;;15.30;98.00;;;;;;5048187;28;20035;-65
2022/10/03 08:39:56;;;;;;;11.13;6.53;;;15.40;98.00;;;;;;5057494;28;20025;-66
2022/10/03 08:42:47;;;;;;;11.35;7.00;;;16.60;96.70;;;;;;5034251;28;20098;-64
2022/10/03 08:45:27;;;;;;;10.93;7.35;;;16.70;92.50;;;;;;5034983;28;20124;-65
2022/10/03 08:48:31;;;;;;;11.50;7.25;;;17.10;92.30;;;;;;5033777;28;20028;-65
2022/10/03 08:51:12;;;;;;;9.75;5.93;;;18.00;89.70;;;;;;5036621;28;20029;-65
2022/10/03 08:53:49;;;;;;;10.55;5.63;;;18.80;87.10;;;;;;5030956;28;20032;-65
2022/10/03 08:56:33;;;;;;;10.35;6.47;;;18.00;87.30;;;;;;5039472;28;20112;-64
2022/10/03 08:59:36;;;;;;;11.32;5.88;;;17.00;89.40;;;;;;5038012;28;20457;-65
2022/10/03 09:02:41;;;;;;;9.80;5.35;;;16.70;91.70;;;;;;5036241;28;20060;-65
2022/10/03 09:05:44;;;;;;;11.93;5.93;;;16.30;91.30;;;;;;5036909;28;20033;-66
2022/10/03 09:08:28;;;;;;;10.63;7.35;;;15.70;93.70;;;;;;5035104;28;20318;-65
2022/10/03 09:11:24;;;;;;;14.98;8.48;;;15.00;95.80;;;;;;5025916;28;20029;-66
2022/10/03 09:14:27;;;;;;;13.55;6.75;;;14.70;97.10;;;;;;5037836;28;20306;-66
2022/10/03 09:17:44;;;;;;;15.15;6.72;;;14.40;97.70;;;;;;5034509;28;20030;-65
2022/10/03 09:20:37;;;;;;;10.95;6.93;;;14.80;97.00;;;;;;5010555;28;20041;-64
2022/10/03 09:23:09;;;;;;;8.23;5.70;;;15.50;96.10;;;;;;5026109;28;20048;-64
2022/10/03 09:26:27;;;;;;;14.00;7.97;;;15.30;94.70;;;;;;5029912;28;20040;-64
2022/10/03 09:29:22;;;;;;;9.38;5.30;;;14.90;95.60;;;;;;5033550;28;20098;-64
2022/10/03 09:32:16;;;;;;;10.90;4.63;;;15.20;96.80;;;;;;5035199;28;20079;-64
2022/10/03 09:34:46;;;;;;;10.70;5.30;;;17.00;92.70;;;;;;5034148;28;20025;-64
2022/10/03 09:37:30;;;;;;;9.73;5.15;;;18.30;86.90;;;;;;5032624;28;20037;-64
2022/10/03 09:40:14;;;;;;;10.13;4.95;;;18.10;83.90;;;;;;5028016;28;20020;-65
2022/10/03 09:43:01;;;;;;;8.13;4.63;;;17.00;87.50;;;;;;5027968;28;20175;-65
2022/10/03 09:45:59;;;;;;;12.45;5.47;;;16.40;89.60;;;;;;5025747;28;20021;-64
2022/10/03 09:48:28;;;;;;;9.57;4.88;;;16.90;90.40;;;;;;5034888;28;20017;-64
2022/10/03 09:51:21;;;;;;;9.15;4.82;;;17.60;87.20;;;;;;5022314;28;20026;-64
2022/10/03 09:54:22;;;;;;;10.57;5.28;;;17.10;89.30;;;;;;5031899;28;20638;-64
2022/10/03 09:57:21;;;;;;;7.38;4.15;;;16.50;89.00;;;;;;5023509;28;20030;-64
2022/10/03 10:00:09;;;;;;;8.95;5.45;;;16.00;91.90;;;;;;5011525;28;20014;-64
2022/10/03 10:02:49;;;;;;;9.30;5.05;;;16.00;92.60;;;;;;5026679;28;20064;-65
2022/10/03 10:05:56;;;;;;;9.45;4.90;;;16.90;89.30;;;;;;5033192;28;20024;-64
2022/10/03 10:08:54;;;;;;;12.30;5.47;;;17.70;87.20;;;;;;5033079;28;20025;-64
2022/10/03 10:11:52;;;;;;;8.35;5.15;;;18.10;85.70;;;;;;5008751;28;20073;-65
2022/10/03 10:14:38;;;;;;;10.98;4.72;;;18.50;85.70;;;;;;5027507;28;20033;-64
2022/10/03 10:17:34;;;;;;;7.68;4.03;;;19.30;81.70;;;;;;5034483;28;20029;-64
2022/10/03 10:20:10;;;;;;;6.30;3.80;;;19.50;82.60;;;;;;5034323;28;20445;-64
2022/10/03 10:22:55;;;;;;;9.75;4.50;;;19.90;78.90;;;;;;5032630;28;20106;-65
2022/10/03 10:25:51;;;;;;;7.97;4.10;;;19.30;81.10;;;;;;5031271;28;20025;-64
2022/10/03 10:28:30;;;;;;;8.38;3.97;;;19.10;81.50;;;;;;5031091;28;20022;-64
2022/10/03 10:31:25;;;;;;;10.18;4.18;;;19.10;82.20;;;;;;5029987;28;20087;-64
2022/10/03 10:34:00;;;;;;;8.93;4.47;;;18.90;81.40;;;;;;5020823;28;20061;-64
2022/10/03 10:37:04;;;;;;;8.27;3.72;;;18.50;81.80;;;;;;5034068;28;20490;-64
2022/10/03 10:39:32;;;;;;;10.30;3.90;;;19.00;81.40;;;;;;5033747;28;20048;-64
2022/10/03 10:42:10;;;;;;;12.57;5.13;;;19.60;80.50;;;;;;5021658;28;20598;-64
2022/10/03 10:45:02;;;;;;;13.23;6.43;;;19.40;82.00;;;;;;5036781;28;20104;-65
2022/10/03 10:47:48;;;;;;;12.52;5.68;;;17.80;84.90;;;;;;5049762;28;20079;-64
2022/10/03 10:50:46;;;;;;;11.98;5.95;;;16.60;88.50;;;;;;5047669;28;20303;-65
2022/10/03 10:53:51;;;;;;;9.48;5.30;;;17.00;91.10;;;;;;5036437;28;20026;-64
2022/10/03 10:56:20;;;;;;;13.50;5.05;;;18.40;85.10;;;;;;5021941;28;20096;-64
2022/10/03 10:58:58;;;;;;;11.13;5.15;;;19.00;81.00;;;;;;5032541;28;20030;-65
2022/10/03 11:01:23;;;;;;;8.57;4.50;;;18.40;82.80;;;;;;5025758;28;20669;-66
2022/10/03 11:04:27;;;;;;;10.88;4.70;;;17.80;83.40;;;;;;5028584;28;20026;-65
2022/10/03 11:07:51;;;;;;;10.02;4.65;;;16.50;86.80;;;;;;5022844;28;20112;-65
2022/10/03 11:10:20;;;;;;;12.07;5.38;;;15.30;89.40;;;;;;4979007;28;20419;-65
2022/10/03 11:13:00;;;;;;;12.75;5.22;;;15.10;92.80;;;;;;4982996;28;20351;-66
2022/10/03 11:15:35;;;;;;;10.93;5.35;;;16.00;89.50;;;;;;5008673;28;20044;-66
2022/10/03 11:18:16;;;;;;;12.95;5.10;;;17.00;88.90;;;;;;5028007;28;20078;-63
2022/10/03 11:21:09;;;;;;;10.70;5.25;;;17.00;86.10;;;;;;5031375;28;20026;-65
2022/10/03 11:24:13;;;;;;;9.38;3.97;;;17.50;84.80;;;;;;5022267;28;20034;-64
2022/10/03 11:27:00;;;;;;;9.63;3.75;;;18.90;81.60;;;;;;5024636;28;20052;-65
2022/10/03 11:30:01;;;;;;;8.32;3.53;;;19.30;78.10;;;;;;5030924;28;20029;-64
2022/10/03 11:32:27;;;;;;;8.38;3.42;;;19.80;76.60;;;;;;5025632;28;20037;-65
2022/10/03 11:35:30;;;;;;;10.02;4.07;;;19.80;74.60;;;;;;5034664;28;20291;-65
2022/10/03 11:38:14;;;;;;;7.75;4.38;;;18.70;78.00;;;;;;5032257;28;20042;-65
2022/10/03 11:40:53;;;;;;;9.15;4.90;;;18.00;82.10;;;;;;5029496;28;20181;-65
2022/10/03 11:43:57;;;;;;;12.35;5.63;;;17.20;85.90;;;;;;5034409;28;20037;-66
2022/10/03 11:46:51;;;;;;;11.43;5.85;;;16.40;88.60;;;;;;5032255;28;20026;-66
2022/10/03 11:49:41;;;;;;;12.40;5.80;;;15.50;89.70;;;;;;5032244;28;20116;-63
2022/10/03 11:52:40;;;;;;;9.50;5.22;;;15.10;92.30;;;;;;5030160;28;20355;-65
2022/10/03 11:55:05;;;;;;;10.05;4.47;;;15.40;90.40;;;;;;5028920;28;20041;-65
2022/10/03 11:57:35;;;;;;;12.50;5.13;;;16.50;88.60;;;;;;5034676;28;20036;-64
2022/10/03 12:00:09;;;;;;;6.85;3.53;;;17.60;83.00;;;;;;5031857;28;20040;-65
2022/10/03 12:02:59;;;;;;;9.27;3.92;;;18.50;77.80;;;;;;5031440;28;20025;-65
2022/10/03 12:09:23;;;;;;;7.28;3.45;;;19.80;76.60;;;;;;5006747;28;20113;-65
2022/10/03 12:12:11;;;;;;;7.20;3.35;;;20.10;73.90;;;;;;5038981;28;20029;-65
2022/10/03 12:14:45;;;;;;;9.38;3.70;;;20.10;75.10;;;;;;5038745;28;20032;-66
2022/10/03 12:17:34;;;;;;;9.02;3.80;;;20.20;75.40;;;;;;5037955;28;20029;-65
2022/10/03 12:20:16;;;;;;;8.57;3.97;;;20.20;76.50;;;;;;5038491;28;20156;-65
2022/10/03 12:22:58;;;;;;;8.45;3.80;;;20.00;78.60;;;;;;5038407;28;20033;-65
2022/10/03 12:25:29;;;;;;;6.47;3.50;;;20.20;79.00;;;;;;5037658;28;20326;-66
2022/10/03 12:28:29;;;;;;;8.23;3.70;;;20.30;76.10;;;;;;5038568;28;20299;-65
2022/10/03 12:30:59;;;;;;;9.98;3.85;;;19.30;75.70;;;;;;5036481;28;20041;-65
2022/10/03 12:33:59;;;;;;;8.63;3.70;;;18.70;79.20;;;;;;5038502;28;20367;-65
2022/10/03 12:36:31;;;;;;;9.88;4.55;;;17.90;78.00;;;;;;5038217;28;20045;-65
2022/10/03 12:39:26;;;;;;;9.48;3.72;;;17.10;81.30;;;;;;5037204;28;20029;-65
2022/10/03 12:42:16;;;;;;;7.07;3.63;;;16.40;79.90;;;;;;5032207;28;20089;-65
2022/10/03 12:45:18;;;;;;;10.50;4.95;;;15.70;85.40;;;;;;5029950;28;20155;-64
2022/10/03 12:48:00;;;;;;;7.70;3.90;;;15.30;85.90;;;;;;5037862;28;20109;-64
2022/10/03 12:50:35;;;;;;;6.80;3.90;;;15.30;83.30;;;;;;5037671;28;20099;-66
2022/10/03 12:53:01;;;;;;;11.02;4.28;;;15.60;83.00;;;;;;5038512;28;20025;-67
2022/10/03 12:55:34;;;;;;;8.77;3.83;;;16.40;85.00;;;;;;5031296;28;20029;-66
2022/10/03 12:58:38;;;;;;;10.13;3.83;;;17.00;81.30;;;;;;5036416;28;20033;-66
2022/10/03 13:01:27;;;;;;;9.23;3.88;;;17.30;80.70;;;;;;4996769;28;20034;-66
2022/10/03 13:04:01;;;;;;;8.45;3.85;;;17.10;79.40;;;;;;4993093;28;20042;-64
2022/10/03 13:07:02;;;;;;;8.40;4.25;;;16.90;79.10;;;;;;5017879;28;20430;-64
2022/10/03 13:09:48;;;;;;;8.35;4.05;;;16.90;79.80;;;;;;5037003;28;20040;-63
2022/10/03 13:12:15;;;;;;;10.10;4.32;;;17.00;81.10;;;;;;5047255;28;20028;-64
2022/10/03 13:15:01;;;;;;;9.85;3.63;;;17.50;83.00;;;;;;5032471;28;20029;-64
2022/10/03 13:17:48;;;;;;;9.07;3.88;;;18.10;77.80;;;;;;5034291;28;20048;-66
2022/10/03 13:20:38;;;;;;;7.03;3.30;;;18.40;76.70;;;;;;5037631;28;20111;-65
2022/10/03 13:23:22;;;;;;;5.90;3.33;;;17.80;78.00;;;;;;5036887;28;20125;-64
2022/10/03 13:26:07;;;;;;;;;;;17.60;78.60;;;;;;5035133;28;20018;-64
2022/10/03 13:29:02;;;;;;;8.57;3.90;;;17.30;79.30;;;;;;5036858;28;19909;-65
2022/10/03 13:31:37;;;;;;;;;;;16.70;82.10;;;;;;5035603;28;20022;-64
2022/10/03 13:34:16;;;;;;;8.80;3.88;;;16.20;81.50;;;;;;5034774;28;19936;-65
2022/10/03 13:36:52;;;;;;;11.70;4.28;;;16.00;80.10;;;;;;5037781;28;20041;-65
2022/10/03 13:39:34;;;;;;;9.05;4.03;;;16.00;80.90;;;;;;5033782;28;20029;-65
2022/10/03 13:42:24;;;;;;;9.43;4.03;;;15.70;82.70;;;;;;5035679;28;20048;-65
2022/10/03 13:44:58;;;;;;;8.85;3.50;;;16.10;81.70;;;;;;5028195;28;20401;-65
2022/10/03 13:47:39;;;;;;;6.55;3.50;;;16.20;82.60;;;;;;5034867;28;20025;-65
2022/10/03 13:50:14;;;;;;;7.85;3.88;;;16.40;80.60;;;;;;5027008;28;20332;-66
2022/10/03 13:52:52;;;;;;;8.63;3.45;;;16.30;80.40;;;;;;5031301;28;20052;-66
2022/10/03 13:55:31;;;;;;;8.25;3.33;;;17.10;79.80;;;;;;5026200;28;20037;-66
2022/10/03 13:58:20;;;;;;;6.85;2.88;;;17.60;77.20;;;;;;5036323;28;20037;-64
2022/10/03 14:01:23;;;;;;;6.68;2.70;;;18.00;76.00;;;;;;5037391;28;20029;-65
2022/10/03 14:04:20;;;;;;;6.57;3.00;;;18.70;75.50;;;;;;5022608;28;20029;-65
2022/10/03 14:07:07;;;;;;;8.02;3.40;;;19.40;72.30;;;;;;5033486;28;20372;-65
2022/10/03 14:09:51;;;;;;;9.30;3.33;;;19.70;72.10;;;;;;5035827;28;20108;-65
2022/10/03 14:12:32;;;;;;;8.82;3.30;;;19.60;70.10;;;;;;5028869;28;20072;-65
2022/10/03 14:15:25;;;;;;;10.45;5.55;;;19.50;72.30;;;;;;5033881;28;20029;-66
2022/10/03 14:18:18;;;;;;;9.77;4.43;;;19.90;71.50;;;;;;5036033;28;20029;-66
2022/10/03 14:21:21;;;;;;;9.13;4.10;;;19.60;74.10;;;;;;5034625;28;20092;-66
2022/10/03 14:24:15;;;;;;;9.18;4.43;;;19.10;75.30;;;;;;5034779;28;20033;-65
2022/10/03 14:26:49;;;;;;;7.93;3.67;;;18.80;75.00;;;;;;5031643;28;20029;-65
2022/10/03 14:29:25;;;;;;;9.10;3.50;;;19.20;75.60;;;;;;5030722;28;20041;-66